Time;durP1;ratioP1;P1;durP2;ratioP2;P2;SDS_P1;SDS_P2;PMS_P1;PMS_P2;Temp;Humidity;BMP_temperature;BMP_pressure;BME280_temperature;BME280_humidity;BME280_pressure;Samples;Min_cycle;Max_cycle;Signal;HPM_P1;HPM_P2
2024/01/01 00:02:16;;;;;;;96.57;51.90;;;5.50;99.90;;;;;;5014186;28;20116;-55
2024/01/01 00:04:42;;;;;;;120.43;65.68;;;5.50;99.90;;;;;;5017201;28;20056;-55
2024/01/01 00:07:07;;;;;;;138.27;75.75;;;5.60;99.90;;;;;;5012512;28;20064;-57
2024/01/01 00:09:33;;;;;;;110.13;62.40;;;5.50;99.90;;;;;;5013134;28;20060;-56
2024/01/01 00:11:58;;;;;;;121.10;66.47;;;5.50;99.90;;;;;;5011042;28;20109;-55
2024/01/01 00:14:24;;;;;;;92.43;51.10;;;5.50;99.90;;;;;;5013764;28;20033;-56
2024/01/01 00:16:49;;;;;;;70.25;41.65;;;5.50;99.90;;;;;;5011531;28;20412;-56
2024/01/01 00:19:15;;;;;;;107.03;56.63;;;5.50;99.90;;;;;;5013631;28;20498;-55
2024/01/01 00:21:40;;;;;;;141.02;75.45;;;5.50;99.90;;;;;;5019153;28;20025;-56
2024/01/01 00:24:06;;;;;;;145.57;73.70;;;5.40;99.90;;;;;;5019035;28;20068;-56
2024/01/01 00:26:31;;;;;;;199.90;106.80;;;5.30;99.90;;;;;;5019268;28;20022;-55
2024/01/01 00:28:57;;;;;;;175.68;93.22;;;5.20;99.90;;;;;;5012771;28;20033;-57
2024/01/01 00:31:22;;;;;;;147.23;78.78;;;5.10;99.90;;;;;;5014850;28;20026;-56
2024/01/01 00:33:48;;;;;;;152.18;80.90;;;5.10;99.90;;;;;;5015156;28;20041;-55
2024/01/01 00:36:13;;;;;;;155.68;83.78;;;5.00;99.90;;;;;;5016602;28;20026;-54
2024/01/01 00:38:39;;;;;;;149.38;80.60;;;5.00;99.90;;;;;;5017014;28;20042;-57
2024/01/01 00:41:04;;;;;;;137.60;73.90;;;5.00;99.90;;;;;;5014750;28;20022;-56
2024/01/01 00:43:32;;;;;;;139.77;73.97;;;4.90;99.90;;;;;;5020512;28;20034;-54
2024/01/01 00:45:58;;;;;;;124.10;64.88;;;4.90;99.90;;;;;;5020461;28;20033;-56
2024/01/01 00:48:23;;;;;;;107.75;59.00;;;4.90;99.90;;;;;;5022597;28;20022;-55
2024/01/01 00:50:48;;;;;;;101.20;57.05;;;4.90;99.90;;;;;;5014496;28;20119;-56
2024/01/01 00:53:14;;;;;;;101.45;52.40;;;4.80;99.90;;;;;;5022740;28;20402;-56
2024/01/01 00:55:40;;;;;;;119.80;58.38;;;4.80;99.90;;;;;;5018445;28;20489;-54
2024/01/01 00:58:06;;;;;;;95.50;50.97;;;4.70;99.90;;;;;;5021132;28;20502;-56
2024/01/01 01:00:31;;;;;;;107.95;50.67;;;4.80;99.90;;;;;;5024076;28;20039;-56
2024/01/01 01:02:57;;;;;;;88.00;43.58;;;4.80;99.90;;;;;;5017171;28;20452;-56
2024/01/01 01:05:24;;;;;;;60.58;34.25;;;4.80;99.90;;;;;;5022405;28;20037;-56
2024/01/01 01:07:49;;;;;;;64.50;36.53;;;4.70;99.90;;;;;;5022267;28;20060;-56
2024/01/01 01:10:15;;;;;;;57.92;31.90;;;4.70;99.90;;;;;;5022265;28;20049;-56
2024/01/01 01:12:40;;;;;;;58.70;32.38;;;4.80;99.90;;;;;;5022654;28;20017;-56
2024/01/01 01:15:06;;;;;;;56.25;28.75;;;4.80;99.90;;;;;;5023956;28;20017;-56
2024/01/01 01:17:32;;;;;;;46.05;24.02;;;4.80;99.90;;;;;;5021812;28;20529;-55
2024/01/01 01:19:57;;;;;;;51.35;27.08;;;4.80;99.90;;;;;;5022062;28;20033;-56
2024/01/01 01:22:23;;;;;;;45.10;24.75;;;4.80;99.90;;;;;;5022084;28;20029;-56
2024/01/01 01:24:48;;;;;;;44.30;23.40;;;4.70;99.90;;;;;;5021919;28;20076;-56
2024/01/01 01:27:13;;;;;;;58.33;28.52;;;4.70;99.90;;;;;;5022167;28;20043;-56
2024/01/01 01:29:40;;;;;;;53.85;27.55;;;4.70;99.90;;;;;;5022629;28;20025;-57
2024/01/01 01:32:07;;;;;;;39.40;21.17;;;4.70;99.90;;;;;;5020845;28;20366;-56
2024/01/01 01:34:33;;;;;;;45.85;24.80;;;4.70;99.90;;;;;;5021865;28;20470;-56
2024/01/01 01:36:58;;;;;;;38.63;21.63;;;4.70;99.90;;;;;;5021684;28;20112;-56
2024/01/01 01:39:24;;;;;;;44.45;25.55;;;4.70;99.90;;;;;;5021780;28;20103;-55
2024/01/01 01:41:49;;;;;;;44.58;23.75;;;4.70;99.90;;;;;;5021103;28;20041;-57
2024/01/01 01:44:15;;;;;;;35.03;19.73;;;4.60;99.90;;;;;;5023154;28;20029;-55
2024/01/01 01:46:41;;;;;;;36.45;18.70;;;4.60;99.90;;;;;;5021432;28;20439;-54
2024/01/01 01:49:07;;;;;;;33.38;19.20;;;4.60;99.90;;;;;;5021738;28;20497;-56
2024/01/01 01:51:32;;;;;;;32.13;19.13;;;4.60;99.90;;;;;;5021770;28;20025;-56
2024/01/01 01:53:59;;;;;;;34.38;19.23;;;4.50;99.90;;;;;;5020126;28;20414;-53
2024/01/01 01:56:26;;;;;;;34.78;18.42;;;4.50;99.90;;;;;;5021742;28;20160;-55
2024/01/01 01:58:51;;;;;;;32.42;16.92;;;4.50;99.90;;;;;;5017181;28;20506;-55
2024/01/01 02:01:17;;;;;;;35.08;18.77;;;4.40;99.90;;;;;;5013240;28;20143;-56
2024/01/01 02:03:44;;;;;;;35.22;18.67;;;4.40;99.90;;;;;;5013600;28;20440;-58
2024/01/01 02:06:11;;;;;;;29.00;15.82;;;4.40;99.90;;;;;;5014093;28;20018;-56
2024/01/01 02:08:37;;;;;;;29.98;16.25;;;4.40;99.90;;;;;;5020584;28;20021;-57
2024/01/01 02:11:02;;;;;;;34.17;16.27;;;4.30;99.90;;;;;;5020990;28;20100;-55
2024/01/01 02:13:29;;;;;;;31.33;15.38;;;4.20;99.90;;;;;;5021450;28;20101;-56
2024/01/01 02:15:55;;;;;;;32.53;17.05;;;4.20;99.90;;;;;;5021095;28;20030;-56
2024/01/01 02:18:21;;;;;;;31.00;15.52;;;4.10;99.90;;;;;;5022464;28;20040;-57
2024/01/01 02:20:47;;;;;;;27.63;14.90;;;4.10;99.90;;;;;;5019873;28;20026;-57
2024/01/01 02:23:16;;;;;;;28.13;15.52;;;4.10;99.90;;;;;;5020690;28;20429;-54
2024/01/01 02:25:42;;;;;;;28.42;15.85;;;4.00;99.90;;;;;;5021126;28;21030;-54
2024/01/01 02:28:08;;;;;;;36.67;17.05;;;4.10;99.90;;;;;;5012861;28;20133;-56
2024/01/01 02:30:33;;;;;;;27.00;13.73;;;4.10;99.90;;;;;;5015380;28;20524;-56
2024/01/01 02:32:59;;;;;;;29.58;15.27;;;4.10;99.90;;;;;;5018246;28;20033;-54
2024/01/01 02:35:24;;;;;;;32.80;15.70;;;4.00;99.90;;;;;;5022486;28;20116;-56
2024/01/01 02:37:50;;;;;;;30.90;13.52;;;4.00;99.90;;;;;;5020548;28;20030;-56
2024/01/01 02:40:15;;;;;;;31.73;15.82;;;3.90;99.90;;;;;;5020571;28;20387;-57
2024/01/01 02:42:41;;;;;;;26.08;14.02;;;3.90;99.90;;;;;;5012531;28;20045;-56
2024/01/01 02:45:07;;;;;;;24.38;13.40;;;3.80;99.90;;;;;;5020374;28;20037;-57
2024/01/01 02:47:32;;;;;;;33.17;16.50;;;3.80;99.90;;;;;;5020358;28;20099;-57
2024/01/01 02:49:58;;;;;;;35.92;16.08;;;3.70;99.90;;;;;;5020735;28;20505;-55
2024/01/01 02:52:23;;;;;;;28.77;14.48;;;3.70;99.90;;;;;;5021668;28;20041;-57
2024/01/01 02:54:49;;;;;;;32.33;16.05;;;3.60;99.90;;;;;;5012793;28;20079;-55
2024/01/01 02:57:14;;;;;;;32.35;15.55;;;3.60;99.90;;;;;;5014496;28;20067;-54
2024/01/01 02:59:40;;;;;;;28.40;14.45;;;3.60;99.90;;;;;;5012323;28;20057;-55
2024/01/01 03:02:07;;;;;;;26.73;14.40;;;3.60;99.90;;;;;;5015376;28;20021;-56
2024/01/01 03:04:33;;;;;;;34.05;16.00;;;3.60;99.90;;;;;;5017003;28;20021;-56
2024/01/01 03:06:58;;;;;;;29.20;15.90;;;3.60;99.90;;;;;;5017752;28;20036;-57
2024/01/01 03:09:23;;;;;;;34.53;16.92;;;3.50;99.90;;;;;;5019989;28;20503;-56
2024/01/01 03:11:49;;;;;;;31.40;16.48;;;3.50;99.90;;;;;;5019977;28;20040;-56
2024/01/01 03:14:14;;;;;;;31.85;17.88;;;3.40;99.90;;;;;;5011889;28;20482;-56
2024/01/01 03:16:41;;;;;;;35.35;18.60;;;3.40;99.90;;;;;;5019966;28;20029;-56
2024/01/01 03:19:06;;;;;;;35.45;17.80;;;3.30;99.90;;;;;;5019711;28;20021;-56
2024/01/01 03:21:32;;;;;;;28.70;15.73;;;3.30;99.90;;;;;;5013505;28;20026;-56
2024/01/01 03:23:57;;;;;;;37.05;19.30;;;3.20;99.90;;;;;;5013582;28;20513;-55
2024/01/01 03:26:23;;;;;;;32.28;18.13;;;3.20;99.90;;;;;;5015601;28;20033;-56
2024/01/01 03:28:48;;;;;;;39.97;20.05;;;3.10;99.90;;;;;;5019738;28;20128;-56
2024/01/01 03:31:14;;;;;;;36.55;17.70;;;3.10;99.90;;;;;;5019757;28;20029;-59
2024/01/01 03:33:39;;;;;;;38.40;18.85;;;3.00;99.90;;;;;;5019742;28;20033;-53
2024/01/01 03:36:05;;;;;;;39.47;18.48;;;2.90;99.90;;;;;;5021438;28;20056;-55
2024/01/01 03:38:31;;;;;;;33.53;17.35;;;2.90;99.90;;;;;;5019417;28;20037;-54
2024/01/01 03:40:56;;;;;;;39.47;19.42;;;2.80;99.90;;;;;;5019447;28;20463;-56
2024/01/01 03:43:22;;;;;;;34.63;17.98;;;2.80;99.90;;;;;;5017471;28;20744;-56
2024/01/01 03:45:47;;;;;;;29.75;16.35;;;2.70;99.90;;;;;;5016976;28;20056;-56
2024/01/01 03:48:13;;;;;;;35.25;17.63;;;2.70;99.90;;;;;;5019361;28;20061;-56
2024/01/01 03:50:38;;;;;;;31.77;16.85;;;2.70;99.90;;;;;;5021287;28;20409;-55
2024/01/01 03:53:04;;;;;;;39.35;19.60;;;2.60;99.90;;;;;;5019304;28;20032;-57
2024/01/01 03:55:30;;;;;;;30.25;17.48;;;2.60;99.90;;;;;;5019339;28;20037;-56
2024/01/01 03:57:56;;;;;;;35.33;18.63;;;2.50;99.90;;;;;;5014928;28;20375;-57
2024/01/01 04:00:21;;;;;;;27.60;15.02;;;2.50;99.90;;;;;;5011335;28;20028;-56
2024/01/01 04:02:48;;;;;;;39.50;19.45;;;2.40;99.90;;;;;;5015480;28;20118;-62
2024/01/01 04:05:14;;;;;;;34.50;17.35;;;2.40;99.90;;;;;;5015546;28;20026;-56
2024/01/01 04:07:39;;;;;;;33.55;15.95;;;2.30;99.90;;;;;;5017129;28;20032;-56
2024/01/01 04:10:06;;;;;;;38.45;18.38;;;2.30;99.90;;;;;;5010686;28;20033;-58
2024/01/01 04:12:32;;;;;;;28.65;13.38;;;2.20;99.90;;;;;;5010062;28;20038;-58
2024/01/01 04:14:57;;;;;;;30.30;14.00;;;2.20;99.90;;;;;;5013867;28;20056;-57
2024/01/01 04:17:23;;;;;;;31.88;14.30;;;2.20;99.90;;;;;;5012910;28;20026;-57
2024/01/01 04:19:48;;;;;;;34.47;13.80;;;2.20;99.90;;;;;;5011227;28;20156;-57
2024/01/01 04:22:15;;;;;;;24.70;12.35;;;2.10;99.90;;;;;;5012897;28;20033;-57
2024/01/01 04:24:44;;;;;;;25.15;12.63;;;2.10;99.90;;;;;;5015046;28;20029;-58
2024/01/01 04:27:09;;;;;;;20.83;10.32;;;2.00;99.90;;;;;;5011238;28;20617;-57
2024/01/01 04:29:35;;;;;;;23.83;12.18;;;2.00;99.90;;;;;;5012125;28;20033;-57
2024/01/01 04:32:00;;;;;;;26.80;13.55;;;1.90;99.90;;;;;;5013243;28;20782;-58
2024/01/01 04:34:26;;;;;;;27.60;13.00;;;1.80;99.90;;;;;;5011342;28;20022;-57
2024/01/01 04:36:51;;;;;;;26.33;12.23;;;1.80;99.90;;;;;;5017342;28;20083;-58
2024/01/01 04:39:17;;;;;;;26.48;12.25;;;1.80;99.90;;;;;;5011200;28;20522;-58
2024/01/01 04:41:42;;;;;;;27.80;11.68;;;1.70;99.90;;;;;;5016384;28;20042;-56
2024/01/01 04:44:08;;;;;;;23.88;10.38;;;1.70;99.90;;;;;;5018092;28;20054;-56
2024/01/01 04:46:33;;;;;;;22.35;11.18;;;1.60;99.90;;;;;;5009436;28;20140;-57
2024/01/01 04:48:59;;;;;;;26.73;11.35;;;1.60;99.90;;;;;;5012062;28;20033;-56
2024/01/01 04:51:24;;;;;;;23.20;10.70;;;1.60;99.90;;;;;;5014025;28;20038;-57
2024/01/01 04:53:50;;;;;;;25.80;12.55;;;1.60;99.90;;;;;;5014731;28;20096;-56
2024/01/01 04:56:16;;;;;;;23.55;11.00;;;1.50;99.90;;;;;;5012498;28;20041;-54
2024/01/01 04:58:43;;;;;;;25.00;11.77;;;1.40;99.90;;;;;;5013354;28;20425;-56
2024/01/01 05:01:08;;;;;;;26.77;11.60;;;1.50;99.90;;;;;;5010975;28;20509;-53
2024/01/01 05:03:34;;;;;;;22.23;10.75;;;1.40;99.90;;;;;;5010931;28;20026;-57
2024/01/01 05:05:59;;;;;;;21.20;10.07;;;1.40;99.90;;;;;;5017312;28;20033;-57
2024/01/01 05:08:25;;;;;;;23.60;11.25;;;1.40;99.90;;;;;;5013448;28;20029;-57
2024/01/01 05:10:50;;;;;;;20.75;9.30;;;1.30;99.90;;;;;;5010963;28;20030;-57
2024/01/01 05:13:16;;;;;;;22.08;10.65;;;1.30;99.90;;;;;;5012993;28;20525;-57
2024/01/01 05:15:43;;;;;;;20.30;10.15;;;1.30;99.90;;;;;;5008787;28;20030;-58
2024/01/01 05:18:09;;;;;;;21.33;9.90;;;1.40;99.90;;;;;;5019327;28;20104;-57
2024/01/01 05:20:34;;;;;;;23.73;10.40;;;1.40;99.90;;;;;;5015303;28;20025;-57
2024/01/01 05:23:00;;;;;;;19.50;9.30;;;1.50;99.90;;;;;;5016437;28;20041;-56
2024/01/01 05:25:25;;;;;;;21.92;10.60;;;1.60;99.90;;;;;;5015435;28;20056;-57
2024/01/01 05:27:50;;;;;;;21.52;10.75;;;1.70;99.90;;;;;;5016759;28;20029;-57
2024/01/01 05:30:16;;;;;;;22.65;10.90;;;1.80;99.90;;;;;;5016990;28;20120;-57
2024/01/01 05:32:42;;;;;;;22.15;11.23;;;1.90;99.90;;;;;;5015380;28;20024;-57
2024/01/01 05:35:07;;;;;;;24.25;10.95;;;1.90;99.90;;;;;;5015151;28;20049;-55
2024/01/01 05:37:33;;;;;;;22.42;9.90;;;2.00;99.90;;;;;;5015861;28;20028;-56
2024/01/01 05:39:58;;;;;;;19.33;8.77;;;2.10;99.90;;;;;;5017861;28;20040;-55
2024/01/01 05:42:24;;;;;;;20.17;9.20;;;2.10;99.90;;;;;;5013042;28;20444;-57
2024/01/01 05:44:49;;;;;;;19.15;9.88;;;2.20;99.90;;;;;;5013845;28;20021;-56
2024/01/01 05:47:15;;;;;;;18.67;8.68;;;2.30;99.90;;;;;;5017222;28;20041;-57
2024/01/01 05:49:40;;;;;;;15.35;7.53;;;2.40;99.90;;;;;;5021819;28;20092;-55
2024/01/01 05:52:06;;;;;;;20.50;10.43;;;2.50;99.90;;;;;;5013739;28;20026;-57
2024/01/01 05:54:31;;;;;;;13.80;7.90;;;2.60;99.90;;;;;;5015457;28;20476;-57
2024/01/01 05:56:57;;;;;;;16.35;7.80;;;2.60;99.90;;;;;;5016835;28;20037;-59
2024/01/01 05:59:22;;;;;;;19.60;8.98;;;2.70;99.90;;;;;;5016212;28;20394;-58
2024/01/01 06:01:48;;;;;;;15.38;7.35;;;2.80;99.90;;;;;;5006883;28;20041;-57
2024/01/01 06:04:13;;;;;;;20.80;9.10;;;2.80;99.90;;;;;;5011689;28;20438;-57
2024/01/01 06:06:39;;;;;;;18.15;8.70;;;2.90;99.90;;;;;;5015825;28;20100;-58
2024/01/01 06:09:04;;;;;;;17.40;8.52;;;2.90;99.90;;;;;;5015051;28;20047;-57
2024/01/01 06:11:30;;;;;;;17.20;8.45;;;3.00;99.90;;;;;;5015818;28;20021;-57
2024/01/01 06:13:56;;;;;;;16.70;8.32;;;3.00;99.90;;;;;;5013269;28;20037;-57
2024/01/01 06:16:24;;;;;;;16.38;7.70;;;3.00;99.90;;;;;;5016938;28;20072;-59
2024/01/01 06:18:50;;;;;;;16.80;8.32;;;3.10;99.90;;;;;;5022868;28;20397;-57
2024/01/01 06:21:16;;;;;;;18.95;8.38;;;3.10;99.90;;;;;;5017323;28;20029;-57
2024/01/01 06:23:45;;;;;;;21.33;8.77;;;3.10;99.90;;;;;;5017239;28;20398;-59
2024/01/01 06:26:13;;;;;;;18.17;8.98;;;3.10;99.90;;;;;;5013789;28;20473;-58
2024/01/01 06:28:39;;;;;;;14.23;7.25;;;3.10;99.90;;;;;;5016745;28;20044;-58
2024/01/01 06:31:05;;;;;;;19.45;8.60;;;3.10;99.90;;;;;;5013021;28;20026;-57
2024/01/01 06:33:31;;;;;;;18.00;8.40;;;3.20;99.90;;;;;;5016067;28;20034;-57
2024/01/01 06:35:56;;;;;;;19.25;9.30;;;3.20;99.90;;;;;;5014008;28;20474;-57
2024/01/01 06:38:22;;;;;;;15.13;8.20;;;3.30;99.90;;;;;;5018660;28;20038;-57
2024/01/01 06:40:47;;;;;;;15.57;8.50;;;3.40;99.90;;;;;;5014324;28;20979;-57
2024/01/01 06:43:12;;;;;;;20.02;8.93;;;3.50;99.90;;;;;;5015403;28;20039;-57
2024/01/01 06:45:38;;;;;;;9.15;5.70;;;3.50;99.90;;;;;;5016892;28;20079;-58
2024/01/01 06:48:04;;;;;;;17.17;8.10;;;3.60;99.90;;;;;;5012398;28;20033;-57
2024/01/01 06:50:30;;;;;;;13.50;7.03;;;3.60;99.90;;;;;;5012807;28;20030;-58
2024/01/01 06:52:55;;;;;;;14.80;7.20;;;3.80;99.90;;;;;;5018414;28;20037;-56
2024/01/01 06:55:22;;;;;;;11.43;6.80;;;3.80;99.90;;;;;;5012485;28;20468;-56
2024/01/01 06:57:48;;;;;;;16.00;8.02;;;3.80;99.90;;;;;;5020402;28;20076;-57
2024/01/01 07:00:15;;;;;;;15.93;8.07;;;3.90;99.90;;;;;;5020237;28;20057;-58
2024/01/01 07:02:41;;;;;;;21.23;8.90;;;3.90;99.90;;;;;;5012972;28;20026;-56
2024/01/01 07:05:07;;;;;;;18.85;8.18;;;3.90;99.90;;;;;;5012188;28;20605;-57
2024/01/01 07:07:33;;;;;;;15.77;7.35;;;3.90;99.90;;;;;;5016784;28;20083;-57
2024/01/01 07:09:59;;;;;;;17.25;8.57;;;3.80;99.90;;;;;;5014306;28;20028;-58
2024/01/01 07:12:27;;;;;;;14.88;7.63;;;3.80;99.90;;;;;;5012057;28;20037;-57
2024/01/01 07:14:53;;;;;;;16.35;8.20;;;3.90;99.90;;;;;;5017535;28;20042;-57
2024/01/01 07:17:19;;;;;;;14.60;7.57;;;3.80;99.90;;;;;;5014080;28;20040;-58
2024/01/01 07:19:44;;;;;;;15.15;7.72;;;3.80;99.90;;;;;;5015988;28;20042;-57
2024/01/01 07:22:10;;;;;;;16.63;7.22;;;3.80;99.90;;;;;;5016558;28;20113;-58
2024/01/01 07:24:35;;;;;;;18.50;8.02;;;3.80;99.90;;;;;;5017966;28;20022;-58
2024/01/01 07:27:01;;;;;;;14.23;6.80;;;3.80;99.90;;;;;;5011786;28;20582;-59
2024/01/01 07:29:28;;;;;;;16.42;7.65;;;3.80;99.90;;;;;;5015739;28;20502;-56
2024/01/01 07:31:54;;;;;;;17.45;8.07;;;3.80;99.90;;;;;;5020073;28;20029;-56
2024/01/01 07:34:20;;;;;;;18.95;8.88;;;3.80;99.90;;;;;;5010053;28;20033;-58
2024/01/01 07:36:46;;;;;;;16.23;6.88;;;3.70;99.90;;;;;;5012760;28;20017;-57
2024/01/01 07:39:12;;;;;;;17.80;8.27;;;3.70;99.90;;;;;;5021402;28;20068;-58
2024/01/01 07:41:38;;;;;;;19.08;9.10;;;3.70;99.90;;;;;;5017146;28;20143;-57
2024/01/01 07:44:04;;;;;;;14.45;7.18;;;3.70;99.90;;;;;;5011432;28;20587;-57
2024/01/01 07:46:30;;;;;;;15.68;8.15;;;3.70;99.90;;;;;;5013098;28;20056;-56
2024/01/01 07:48:56;;;;;;;17.13;7.68;;;3.70;99.90;;;;;;5014072;28;20397;-57
2024/01/01 07:51:22;;;;;;;12.57;6.78;;;3.70;99.90;;;;;;5010125;28;20025;-58
2024/01/01 07:53:50;;;;;;;20.25;8.90;;;3.70;99.90;;;;;;5012256;28;20018;-57
2024/01/01 07:56:15;;;;;;;17.33;8.27;;;3.80;99.90;;;;;;5012111;28;20163;-60
2024/01/01 07:58:40;;;;;;;15.85;8.40;;;3.70;99.90;;;;;;5010774;28;20113;-55
2024/01/01 08:01:07;;;;;;;14.82;7.75;;;3.70;99.90;;;;;;5012212;28;20653;-57
2024/01/01 08:03:33;;;;;;;23.63;8.85;;;3.60;99.90;;;;;;5008283;28;20026;-56
2024/01/01 08:05:58;;;;;;;18.48;7.50;;;3.70;99.90;;;;;;5011400;28;20593;-57
2024/01/01 08:08:24;;;;;;;14.48;6.75;;;3.70;99.90;;;;;;5016925;28;20025;-56
2024/01/01 08:10:50;;;;;;;17.60;8.43;;;3.70;99.90;;;;;;5018235;28;20033;-57
2024/01/01 08:13:15;;;;;;;16.20;6.95;;;3.80;99.90;;;;;;5011342;28;20547;-57
2024/01/01 08:15:41;;;;;;;24.13;8.32;;;3.90;99.90;;;;;;5011615;28;20035;-56
2024/01/01 08:18:06;;;;;;;19.30;8.02;;;4.00;99.90;;;;;;5013881;28;20496;-55
2024/01/01 08:20:32;;;;;;;17.77;7.55;;;4.10;99.90;;;;;;5011448;28;20414;-57
2024/01/01 08:22:57;;;;;;;15.85;7.78;;;4.20;99.90;;;;;;5014457;28;20025;-57
2024/01/01 08:25:23;;;;;;;16.33;8.10;;;4.20;99.90;;;;;;5011871;28;20029;-57
2024/01/01 08:27:49;;;;;;;16.17;8.52;;;4.30;99.90;;;;;;5012051;28;20425;-58
2024/01/01 08:30:14;;;;;;;17.95;8.10;;;4.40;99.90;;;;;;5011963;28;20022;-56
2024/01/01 08:32:40;;;;;;;18.02;8.52;;;4.50;99.90;;;;;;5016218;28;20578;-57
2024/01/01 08:35:06;;;;;;;20.77;10.05;;;4.60;99.90;;;;;;5010805;28;20026;-57
2024/01/01 08:37:32;;;;;;;18.33;9.43;;;4.70;99.90;;;;;;5013000;28;20524;-55
2024/01/01 08:39:58;;;;;;;19.23;9.75;;;4.80;99.90;;;;;;5011697;28;20041;-56
2024/01/01 08:42:23;;;;;;;16.55;8.23;;;4.90;99.90;;;;;;5020079;28;20029;-58
2024/01/01 08:44:49;;;;;;;15.48;7.75;;;5.10;99.90;;;;;;5013795;28;20034;-58
2024/01/01 08:47:15;;;;;;;15.85;7.88;;;5.20;99.90;;;;;;5010932;28;20545;-57
2024/01/01 08:49:41;;;;;;;14.90;7.65;;;5.40;99.90;;;;;;5010355;28;20067;-57
2024/01/01 08:52:07;;;;;;;21.70;7.05;;;5.50;99.90;;;;;;5016053;28;20025;-56
2024/01/01 08:54:32;;;;;;;13.95;6.57;;;5.70;99.90;;;;;;5023620;28;20086;-56
2024/01/01 08:56:58;;;;;;;14.35;6.20;;;5.80;99.90;;;;;;5015010;28;20405;-57
2024/01/01 08:59:23;;;;;;;10.60;5.78;;;5.90;99.90;;;;;;5015671;28;20034;-56
2024/01/01 09:01:49;;;;;;;10.40;5.40;;;6.00;99.90;;;;;;5011882;28;20029;-55
2024/01/01 09:04:14;;;;;;;9.10;4.53;;;6.20;99.90;;;;;;5017185;28;20029;-57
2024/01/01 09:06:40;;;;;;;12.57;4.95;;;6.30;99.90;;;;;;5018872;28;20029;-56
2024/01/01 09:09:08;;;;;;;9.30;4.95;;;6.40;99.90;;;;;;5017905;28;20022;-57
2024/01/01 09:11:33;;;;;;;9.50;4.72;;;6.50;99.90;;;;;;5014666;28;20029;-56
2024/01/01 09:14:00;;;;;;;10.45;5.13;;;6.50;99.90;;;;;;5021822;28;20373;-57
2024/01/01 09:16:29;;;;;;;10.05;5.28;;;6.60;99.90;;;;;;5014703;28;20092;-56
2024/01/01 09:18:55;;;;;;;7.97;4.53;;;6.70;99.90;;;;;;5019780;28;20057;-56
2024/01/01 09:21:22;;;;;;;9.43;4.80;;;6.70;99.90;;;;;;5013981;28;20091;-58
2024/01/01 09:23:47;;;;;;;10.13;4.55;;;6.80;99.90;;;;;;5021053;28;20030;-54
2024/01/01 09:26:14;;;;;;;10.27;3.85;;;6.90;99.90;;;;;;5015533;28;20044;-57
2024/01/01 09:28:40;;;;;;;10.82;4.90;;;6.90;99.90;;;;;;5020027;28;20033;-55
2024/01/01 09:31:05;;;;;;;5.63;3.47;;;7.10;99.90;;;;;;5016595;28;20754;-56
2024/01/01 09:33:31;;;;;;;9.02;4.10;;;7.40;99.90;;;;;;5014281;28;20057;-56
2024/01/01 09:35:56;;;;;;;7.32;3.75;;;7.60;99.90;;;;;;5013816;28;20517;-57
2024/01/01 09:38:22;;;;;;;8.18;3.45;;;7.70;99.90;;;;;;5019541;28;20638;-58
2024/01/01 09:40:47;;;;;;;8.63;3.75;;;7.80;99.90;;;;;;5011641;28;20036;-54
2024/01/01 09:43:17;;;;;;;7.25;3.55;;;7.90;99.90;;;;;;5011280;28;20033;-57
2024/01/01 09:45:46;;;;;;;6.25;3.60;;;8.10;99.90;;;;;;5018216;28;20715;-57
2024/01/01 09:48:11;;;;;;;5.22;3.42;;;8.20;99.90;;;;;;5019177;28;20029;-57
2024/01/01 09:50:37;;;;;;;9.18;3.33;;;8.40;99.90;;;;;;5012549;28;20963;-57
2024/01/01 09:53:03;;;;;;;10.00;3.90;;;8.50;99.90;;;;;;5013775;28;20055;-55
2024/01/01 09:55:29;;;;;;;10.50;3.67;;;8.60;99.90;;;;;;5015720;28;20108;-56
2024/01/01 09:57:55;;;;;;;6.57;4.10;;;8.70;99.90;;;;;;5014461;28;20033;-56
2024/01/01 10:00:22;;;;;;;5.72;3.40;;;8.70;99.90;;;;;;5013637;28;20040;-55
2024/01/01 10:02:47;;;;;;;5.90;3.42;;;8.70;99.90;;;;;;5011563;28;20037;-57
2024/01/01 10:05:14;;;;;;;4.70;2.65;;;8.70;99.90;;;;;;5023095;28;20026;-57
2024/01/01 10:07:40;;;;;;;6.10;3.45;;;8.70;99.90;;;;;;5017811;28;20026;-58
2024/01/01 10:10:06;;;;;;;7.25;3.65;;;8.60;99.90;;;;;;5015780;28;20034;-64
2024/01/01 10:12:35;;;;;;;6.75;3.08;;;8.50;99.90;;;;;;5014843;28;20498;-64
2024/01/01 10:15:00;;;;;;;5.60;3.20;;;8.50;99.90;;;;;;5017551;28;20430;-64
2024/01/01 10:17:26;;;;;;;5.85;3.47;;;8.50;99.90;;;;;;5017271;28;20057;-63
2024/01/01 10:20:02;;;;;;;8.38;3.95;;;8.50;99.90;;;;;;5022678;28;20049;-64
2024/01/01 10:22:31;;;;;;;17.50;7.35;;;8.50;99.90;;;;;;5018530;28;20490;-65
2024/01/01 10:25:13;;;;;;;13.02;5.72;;;8.60;99.90;;;;;;5015449;28;20025;-65
2024/01/01 10:27:43;;;;;;;14.05;5.30;;;8.60;99.90;;;;;;5015637;28;20063;-64
2024/01/01 10:30:09;;;;;;;9.30;4.50;;;8.50;99.90;;;;;;5019551;28;20104;-64
2024/01/01 10:32:35;;;;;;;9.15;4.47;;;8.50;99.90;;;;;;5016437;28;20450;-64
2024/01/01 10:35:03;;;;;;;9.35;3.97;;;8.50;99.90;;;;;;5015408;28;20029;-64
2024/01/01 10:37:30;;;;;;;8.38;4.00;;;8.50;99.90;;;;;;5020506;28;20014;-63
2024/01/01 10:40:04;;;;;;;7.65;3.97;;;8.50;99.90;;;;;;5013737;28;20033;-64
2024/01/01 10:42:33;;;;;;;10.73;4.18;;;8.50;99.90;;;;;;5013343;28;20109;-64
2024/01/01 10:45:03;;;;;;;10.77;4.47;;;8.50;99.90;;;;;;5011238;28;20105;-64
2024/01/01 10:47:29;;;;;;;9.77;3.72;;;8.40;99.90;;;;;;5014726;28;20107;-64
2024/01/01 10:50:07;;;;;;;11.13;4.20;;;8.40;99.90;;;;;;5012667;28;20025;-63
2024/01/01 10:52:58;;;;;;;7.53;3.72;;;8.30;99.90;;;;;;5013172;28;20643;-63
2024/01/01 10:55:49;;;;;;;9.35;4.00;;;8.30;99.90;;;;;;5013833;28;20029;-64
2024/01/01 10:58:30;;;;;;;11.18;4.45;;;8.20;99.90;;;;;;5013066;28;20038;-64
2024/01/01 11:01:17;;;;;;;10.88;4.05;;;8.20;99.90;;;;;;5015530;28;20087;-59
2024/01/01 11:03:47;;;;;;;7.93;3.40;;;8.20;99.90;;;;;;5013159;28;20105;-65
2024/01/01 11:06:27;;;;;;;10.10;4.75;;;8.20;99.90;;;;;;5018313;28;20025;-64
2024/01/01 11:08:54;;;;;;;9.85;3.92;;;8.10;99.90;;;;;;5015756;28;20024;-64
2024/01/01 11:11:31;;;;;;;6.50;3.70;;;8.10;99.90;;;;;;5012430;28;20025;-64
2024/01/01 11:13:57;;;;;;;7.72;3.15;;;8.10;99.90;;;;;;5020385;28;20026;-66
2024/01/01 11:16:23;;;;;;;9.05;3.60;;;8.00;99.90;;;;;;5014498;28;20052;-64
2024/01/01 11:18:50;;;;;;;8.60;4.78;;;8.00;99.90;;;;;;5011582;28;20115;-65
2024/01/01 11:21:29;;;;;;;7.28;3.47;;;8.00;99.90;;;;;;5011985;28;20104;-64
2024/01/01 11:23:56;;;;;;;6.78;3.60;;;8.10;99.90;;;;;;5014466;28;20029;-64
2024/01/01 11:26:34;;;;;;;9.38;4.22;;;8.00;99.90;;;;;;5008257;28;20044;-65
2024/01/01 11:29:18;;;;;;;7.13;4.43;;;8.10;99.90;;;;;;5007903;28;20041;-64
2024/01/01 11:31:43;;;;;;;9.20;4.03;;;8.10;99.90;;;;;;5012132;28;20018;-62
2024/01/01 11:34:14;;;;;;;7.70;3.70;;;8.00;99.90;;;;;;5013066;28;20029;-64
2024/01/01 11:36:40;;;;;;;7.63;3.72;;;8.00;99.90;;;;;;5016499;28;20025;-65
2024/01/01 11:39:06;;;;;;;5.97;3.60;;;8.00;99.90;;;;;;5019125;28;20025;-64
2024/01/01 11:41:33;;;;;;;8.57;3.78;;;7.90;99.90;;;;;;5018760;28;20025;-64
2024/01/01 11:44:12;;;;;;;9.85;3.80;;;7.80;99.90;;;;;;5014587;28;20067;-64
2024/01/01 11:46:38;;;;;;;9.27;3.97;;;7.80;99.90;;;;;;5013061;28;20822;-65
2024/01/01 11:49:04;;;;;;;7.55;4.03;;;7.70;99.90;;;;;;5016041;28;20489;-62
2024/01/01 11:51:50;;;;;;;9.38;3.95;;;7.70;99.90;;;;;;5010994;28;20033;-63
2024/01/01 11:54:16;;;;;;;7.20;4.00;;;7.60;99.90;;;;;;5012519;28;20143;-63
2024/01/01 11:56:44;;;;;;;8.35;4.03;;;7.50;99.90;;;;;;5008561;28;20482;-61
2024/01/01 11:59:11;;;;;;;9.15;4.15;;;7.50;99.90;;;;;;5007625;28;20764;-61
2024/01/01 12:01:39;;;;;;;10.15;4.47;;;7.50;99.90;;;;;;5004147;28;20033;-62
2024/01/01 12:04:08;;;;;;;8.88;4.18;;;7.60;99.90;;;;;;5010254;28;20028;-61
2024/01/01 12:06:34;;;;;;;7.50;4.78;;;7.60;99.90;;;;;;5012638;28;20026;-62
2024/01/01 12:09:11;;;;;;;7.60;4.13;;;7.60;99.90;;;;;;5018219;28;20025;-62
2024/01/01 12:11:42;;;;;;;6.68;3.55;;;7.60;99.90;;;;;;5003895;28;20033;-62
2024/01/01 12:14:08;;;;;;;5.88;3.47;;;7.70;99.90;;;;;;5005695;28;20022;-62
2024/01/01 12:16:34;;;;;;;6.70;4.07;;;7.70;99.90;;;;;;5012078;28;20041;-62
2024/01/01 12:19:02;;;;;;;10.10;4.93;;;7.70;99.90;;;;;;5006034;28;20739;-61
2024/01/01 12:21:41;;;;;;;14.32;6.10;;;7.70;99.90;;;;;;5011535;28;20032;-64
2024/01/01 12:24:08;;;;;;;11.90;5.78;;;7.70;99.90;;;;;;5006803;28;20096;-61
2024/01/01 12:26:35;;;;;;;12.88;6.25;;;7.70;99.90;;;;;;5013759;28;20025;-63
2024/01/01 12:29:18;;;;;;;10.13;5.38;;;7.70;99.90;;;;;;5018391;28;20025;-61
2024/01/01 12:31:45;;;;;;;14.85;5.75;;;7.80;99.90;;;;;;5015587;28;20033;-62
2024/01/01 12:34:19;;;;;;;9.75;4.55;;;7.80;99.90;;;;;;5011087;28;20022;-63
2024/01/01 12:36:46;;;;;;;11.00;5.63;;;7.80;99.90;;;;;;5010662;28;20025;-63
2024/01/01 12:39:15;;;;;;;10.27;4.03;;;7.80;99.90;;;;;;5013454;28;20084;-62
2024/01/01 12:41:41;;;;;;;6.18;3.70;;;7.80;99.90;;;;;;5010914;28;20026;-62